createdAt,value
2017-12-29T00:00:18.241Z,-1.10
2017-12-29T00:02:45.449Z,-1.10
2017-12-29T00:05:11.956Z,-1.20
2017-12-29T00:07:38.332Z,-1.10
2017-12-29T00:10:04.764Z,-1.10
2017-12-29T00:12:31.356Z,-1.10
2017-12-29T00:14:58.612Z,-1.10
2017-12-29T00:17:25.797Z,-1.10
2017-12-29T00:19:52.273Z,-1.10
2017-12-29T00:22:18.676Z,-1.10
2017-12-29T00:24:45.126Z,-1.00
2017-12-29T00:27:11.510Z,-1.00
2017-12-29T00:29:37.938Z,-1.00
2017-12-29T00:32:05.169Z,-1.00
2017-12-29T00:34:31.649Z,-1.00
2017-12-29T00:36:58.095Z,-0.90
2017-12-29T00:39:24.484Z,-1.00
2017-12-29T00:41:51.654Z,-1.00
2017-12-29T00:44:18.060Z,-1.00
2017-12-29T00:46:45.240Z,-1.00
2017-12-29T00:49:11.669Z,-1.00
2017-12-29T00:51:38.062Z,-1.00
2017-12-29T00:54:06.100Z,-1.10
2017-12-29T00:56:32.506Z,-1.00
2017-12-29T00:58:58.900Z,-1.10
2017-12-29T01:01:26.110Z,-1.10
2017-12-29T01:03:52.575Z,-1.10
2017-12-29T01:06:18.996Z,-1.10
2017-12-29T01:08:45.436Z,-1.20
2017-12-29T01:11:12.228Z,-1.20
2017-12-29T01:13:38.688Z,-1.20
2017-12-29T01:16:05.068Z,-1.20
2017-12-29T01:18:31.537Z,-1.20
2017-12-29T01:20:57.936Z,-1.10
2017-12-29T01:23:24.522Z,-1.10
2017-12-29T01:25:50.940Z,-1.20
2017-12-29T01:28:17.333Z,-1.20
2017-12-29T01:30:43.821Z,-1.20
2017-12-29T01:33:10.202Z,-1.20
2017-12-29T01:35:36.590Z,-1.20
2017-12-29T01:38:03.013Z,-1.10
2017-12-29T01:40:29.535Z,-1.20
2017-12-29T01:42:56.004Z,-1.10
2017-12-29T01:45:22.400Z,-1.20
2017-12-29T01:47:56.851Z,-1.10
2017-12-29T01:50:23.256Z,-1.10
2017-12-29T01:52:49.632Z,-1.10
2017-12-29T01:55:16.776Z,-1.10
2017-12-29T01:57:43.936Z,-1.10
2017-12-29T02:00:11.085Z,-1.10
2017-12-29T02:02:38.216Z,-1.10
2017-12-29T02:05:05.528Z,-1.10
2017-12-29T02:07:31.904Z,-1.10
2017-12-29T02:09:59.016Z,-1.10
2017-12-29T02:12:25.491Z,-1.20
2017-12-29T02:14:52.704Z,-1.20
2017-12-29T02:17:19.837Z,-1.20
2017-12-29T02:19:46.269Z,-1.20
2017-12-29T02:22:12.641Z,-1.20
2017-12-29T02:24:39.049Z,-1.20
2017-12-29T02:27:05.472Z,-1.20
2017-12-29T02:29:31.869Z,-1.20
2017-12-29T02:31:58.297Z,-1.20
2017-12-29T02:34:24.740Z,-1.20
2017-12-29T02:36:51.186Z,-1.20
2017-12-29T02:39:17.621Z,-1.30
2017-12-29T02:41:43.988Z,-1.30
2017-12-29T02:44:10.389Z,-1.30
2017-12-29T02:46:36.830Z,-1.30
2017-12-29T02:49:03.209Z,-1.30
2017-12-29T02:51:30.334Z,-1.30
2017-12-29T02:53:56.878Z,-1.30
2017-12-29T02:56:24.140Z,-1.30
2017-12-29T02:58:51.516Z,-1.20
2017-12-29T03:01:17.909Z,-1.30
2017-12-29T03:03:44.276Z,-1.20
2017-12-29T03:06:10.710Z,-1.20
2017-12-29T03:08:37.178Z,-1.30
2017-12-29T03:11:03.572Z,-1.30
2017-12-29T03:13:30.003Z,-1.30
2017-12-29T03:15:56.413Z,-1.30
2017-12-29T03:18:23.528Z,-1.20
2017-12-29T03:20:49.920Z,-1.20
2017-12-29T03:23:16.324Z,-1.10
2017-12-29T03:25:43.603Z,-1.10
2017-12-29T03:28:09.969Z,-1.10
2017-12-29T03:30:36.343Z,-1.00
2017-12-29T03:33:04.244Z,-1.00
2017-12-29T03:35:30.672Z,-1.00
2017-12-29T03:37:57.061Z,-0.90
2017-12-29T03:40:24.257Z,-0.90
2017-12-29T03:42:50.671Z,-0.90
2017-12-29T03:45:17.068Z,-0.90
2017-12-29T03:47:43.436Z,-0.90
2017-12-29T03:50:10.570Z,-0.80
2017-12-29T03:52:38.335Z,-0.80
2017-12-29T03:55:05.456Z,-0.80
2017-12-29T03:57:31.929Z,-0.90
2017-12-29T03:59:58.292Z,-0.80
2017-12-29T04:02:24.678Z,-0.80
2017-12-29T04:04:51.785Z,-0.90
2017-12-29T04:07:18.192Z,-0.80
2017-12-29T04:09:44.621Z,-0.80
2017-12-29T04:12:11.013Z,-0.80
2017-12-29T04:14:38.163Z,-0.90
2017-12-29T04:17:05.296Z,-0.90
2017-12-29T04:19:31.789Z,-0.90
2017-12-29T04:21:58.200Z,-0.90
2017-12-29T04:24:24.557Z,-0.80
2017-12-29T04:29:24.069Z,-0.80
2017-12-29T04:31:50.549Z,-0.80
2017-12-29T04:34:17.792Z,-0.70
2017-12-29T04:36:44.179Z,-0.70
2017-12-29T04:39:10.594Z,-0.70
2017-12-29T04:41:37.032Z,-0.70
2017-12-29T04:44:03.493Z,-0.60
2017-12-29T04:46:29.855Z,-0.70
2017-12-29T04:48:57.701Z,-0.60
2017-12-29T04:51:24.180Z,-0.60
2017-12-29T04:53:50.560Z,-0.60
2017-12-29T04:56:16.953Z,-0.70
2017-12-29T04:58:43.392Z,-0.60
2017-12-29T05:01:09.959Z,-0.60
2017-12-29T05:03:36.372Z,-0.60
2017-12-29T05:06:02.800Z,-0.50
2017-12-29T05:08:29.216Z,-0.50
2017-12-29T05:10:55.608Z,-0.50
2017-12-29T05:13:21.981Z,-0.50
2017-12-29T05:15:48.415Z,-0.40
2017-12-29T05:18:14.838Z,-0.50
2017-12-29T05:20:41.271Z,-0.50
2017-12-29T05:23:07.638Z,-0.50
2017-12-29T05:25:34.033Z,-0.50
2017-12-29T05:28:00.404Z,-0.50
2017-12-29T05:30:26.812Z,-0.60
2017-12-29T05:32:53.305Z,-0.60
2017-12-29T05:35:20.449Z,-0.70
2017-12-29T05:37:46.824Z,-0.70
2017-12-29T05:40:13.217Z,-0.80
2017-12-29T05:42:40.385Z,-0.90
2017-12-29T05:45:06.753Z,-0.90
2017-12-29T05:47:33.152Z,-0.90
2017-12-29T05:49:59.555Z,-0.90
2017-12-29T05:52:26.720Z,-1.00
2017-12-29T05:54:53.864Z,-1.10
2017-12-29T05:57:21.030Z,-1.20
2017-12-29T05:59:47.439Z,-1.20
2017-12-29T06:02:14.731Z,-1.50
2017-12-29T06:04:41.123Z,-1.50
2017-12-29T06:07:08.249Z,-1.70
2017-12-29T06:09:36.109Z,-1.80
2017-12-29T06:12:02.538Z,-1.80
2017-12-29T06:14:28.907Z,-1.90
2017-12-29T06:16:56.080Z,-2.10
2017-12-29T06:19:22.509Z,-2.10
2017-12-29T06:21:49.044Z,-2.20
2017-12-29T06:24:15.431Z,-2.40
2017-12-29T06:26:41.891Z,-2.40
2017-12-29T06:29:08.997Z,-2.40
2017-12-29T06:31:35.532Z,-2.40
2017-12-29T06:34:01.957Z,-2.40
2017-12-29T06:36:28.544Z,-2.40
2017-12-29T06:38:55.685Z,-2.50
2017-12-29T06:41:22.849Z,-2.40
2017-12-29T06:43:49.353Z,-2.40
2017-12-29T06:46:15.676Z,-2.40
2017-12-29T06:48:42.082Z,-2.50
2017-12-29T06:51:08.442Z,-2.50
2017-12-29T06:53:34.839Z,-2.40
2017-12-29T06:56:01.240Z,-2.30
2017-12-29T06:58:27.640Z,-2.30
2017-12-29T07:00:54.053Z,-2.30
2017-12-29T07:03:20.441Z,-2.40
2017-12-29T07:05:46.816Z,-2.40
2017-12-29T07:08:13.394Z,-2.50
2017-12-29T07:10:40.515Z,-2.60
2017-12-29T07:13:07.092Z,-2.70
2017-12-29T07:15:33.662Z,-2.70
2017-12-29T07:18:00.073Z,-2.80
2017-12-29T07:20:33.523Z,-2.80
2017-12-29T07:23:00.716Z,-3.00
2017-12-29T07:25:27.135Z,-3.00
2017-12-29T07:27:53.542Z,-3.00
2017-12-29T07:30:20.888Z,-3.20
2017-12-29T07:32:47.473Z,-3.20
2017-12-29T07:35:13.925Z,-3.20
2017-12-29T07:37:40.328Z,-3.20
2017-12-29T07:40:06.713Z,-3.20
2017-12-29T07:42:33.297Z,-3.10
2017-12-29T07:44:59.695Z,-3.10
2017-12-29T07:47:26.829Z,-3.10
2017-12-29T07:49:53.234Z,-3.10
2017-12-29T07:52:19.839Z,-3.00
2017-12-29T07:54:46.255Z,-3.10
2017-12-29T07:57:13.356Z,-3.10
2017-12-29T07:59:39.829Z,-3.10
2017-12-29T08:02:07.001Z,-3.10
2017-12-29T08:04:33.413Z,-3.10
2017-12-29T08:07:00.581Z,-3.20
2017-12-29T08:09:26.948Z,-3.20
2017-12-29T08:11:53.324Z,-3.20
2017-12-29T08:14:20.475Z,-3.20
2017-12-29T08:16:47.641Z,-3.10
2017-12-29T08:19:14.049Z,-3.20
2017-12-29T08:21:41.311Z,-2.90
2017-12-29T08:24:08.428Z,-2.80
2017-12-29T08:26:34.828Z,-2.80
2017-12-29T08:29:01.216Z,-2.50
2017-12-29T08:31:28.384Z,-2.30
2017-12-29T08:33:54.783Z,-2.30
2017-12-29T08:36:21.962Z,-1.80
2017-12-29T08:38:48.400Z,-1.80
2017-12-29T08:41:14.789Z,-1.50
2017-12-29T08:43:41.201Z,-1.40
2017-12-29T08:46:07.573Z,-1.20
2017-12-29T08:48:34.724Z,-0.50
2017-12-29T08:51:01.840Z,-0.10
2017-12-29T08:53:28.248Z,-0.10
2017-12-29T08:55:55.103Z,0.40
2017-12-29T08:58:21.557Z,1.00
2017-12-29T09:00:48.078Z,1.50
2017-12-29T09:03:14.583Z,1.90
2017-12-29T09:05:41.889Z,2.20
2017-12-29T09:08:09.145Z,2.70
2017-12-29T09:10:36.370Z,2.80
2017-12-29T09:13:02.797Z,2.80
2017-12-29T09:15:29.164Z,2.70
2017-12-29T09:17:56.457Z,2.50
2017-12-29T09:20:22.896Z,2.50
2017-12-29T09:22:49.362Z,2.60
2017-12-29T09:25:15.746Z,2.80
2017-12-29T09:27:42.224Z,2.90
2017-12-29T09:30:08.621Z,3.60
2017-12-29T09:32:35.032Z,4.40
2017-12-29T09:35:01.432Z,5.00
2017-12-29T09:37:28.585Z,5.70
2017-12-29T09:39:55.844Z,5.60
2017-12-29T09:42:23.092Z,6.00
2017-12-29T09:44:50.246Z,6.20
2017-12-29T09:47:17.348Z,5.80
2017-12-29T09:49:43.752Z,5.80
2017-12-29T09:52:10.172Z,5.30
2017-12-29T09:54:36.585Z,4.90
2017-12-29T09:57:03.769Z,5.00
2017-12-29T09:59:30.205Z,5.00
2017-12-29T10:01:56.735Z,4.70
2017-12-29T10:04:23.137Z,5.00
2017-12-29T10:06:50.287Z,5.40
2017-12-29T10:09:17.441Z,5.40
2017-12-29T10:11:43.832Z,5.40
2017-12-29T10:14:10.336Z,5.70
2017-12-29T10:16:36.761Z,5.70
2017-12-29T10:19:03.440Z,6.10
2017-12-29T10:21:29.808Z,6.50
2017-12-29T10:23:56.224Z,6.20
2017-12-29T10:26:23.424Z,5.80
2017-12-29T10:28:49.852Z,5.80
2017-12-29T10:31:16.288Z,5.70
2017-12-29T10:33:43.554Z,5.40
2017-12-29T10:36:09.961Z,5.40
2017-12-29T10:38:36.389Z,5.40
2017-12-29T10:41:02.782Z,5.10
2017-12-29T10:43:30.006Z,5.60
2017-12-29T10:45:56.405Z,5.60
2017-12-29T10:48:22.877Z,5.70
2017-12-29T10:50:49.416Z,5.30
2017-12-29T10:53:15.808Z,5.40
2017-12-29T10:55:42.256Z,5.80
2017-12-29T10:58:08.676Z,5.90
2017-12-29T11:00:35.066Z,6.10
2017-12-29T11:03:02.301Z,6.70
2017-12-29T11:05:29.463Z,6.10
2017-12-29T11:07:56.596Z,6.50
2017-12-29T11:10:23.025Z,6.40
2017-12-29T11:12:49.614Z,6.80
2017-12-29T11:15:16.060Z,6.50
2017-12-29T11:17:42.452Z,6.80
2017-12-29T11:20:09.593Z,6.70
2017-12-29T11:22:36.744Z,6.90
2017-12-29T11:25:03.869Z,6.50
2017-12-29T11:27:30.317Z,6.40
2017-12-29T11:29:57.472Z,6.60
2017-12-29T11:32:24.642Z,6.70
2017-12-29T11:34:51.032Z,6.70
2017-12-29T11:37:17.481Z,6.50
2017-12-29T11:39:44.593Z,7.30
2017-12-29T11:42:11.071Z,7.30
2017-12-29T11:44:38.293Z,6.50
2017-12-29T11:47:04.692Z,6.50
2017-12-29T11:49:31.086Z,6.40
2017-12-29T11:51:58.206Z,6.50
2017-12-29T11:54:24.789Z,6.50
2017-12-29T11:56:51.307Z,6.50
2017-12-29T11:59:17.755Z,6.60
2017-12-29T12:01:44.172Z,7.30
2017-12-29T12:04:10.620Z,7.70
2017-12-29T12:06:37.058Z,7.30
2017-12-29T12:09:03.461Z,7.10
2017-12-29T12:11:30.598Z,7.10
2017-12-29T12:13:57.668Z,7.10
2017-12-29T12:16:25.411Z,7.30
2017-12-29T12:18:52.338Z,7.70
2017-12-29T12:21:20.644Z,7.80
2017-12-29T12:23:48.100Z,7.50
2017-12-29T12:26:16.364Z,7.50
2017-12-29T12:28:43.573Z,7.10
2017-12-29T12:31:10.085Z,7.10
2017-12-29T12:33:36.548Z,7.40
2017-12-29T12:36:02.921Z,6.80
2017-12-29T12:38:30.196Z,5.90
2017-12-29T12:40:56.726Z,5.90
2017-12-29T12:43:23.695Z,5.70
2017-12-29T12:45:50.209Z,5.40
2017-12-29T12:48:17.779Z,5.50
2017-12-29T12:50:45.235Z,5.30
2017-12-29T12:53:14.554Z,5.20
2017-12-29T12:55:41.996Z,5.00
2017-12-29T12:58:09.394Z,4.60
2017-12-29T13:00:36.452Z,4.70
2017-12-29T13:03:03.662Z,4.70
2017-12-29T13:05:30.214Z,4.60
2017-12-29T13:07:58.617Z,5.00
2017-12-29T13:10:25.984Z,6.70
2017-12-29T13:12:54.719Z,6.70
2017-12-29T13:15:22.243Z,6.70
2017-12-29T13:17:48.652Z,6.70
2017-12-29T13:20:16.528Z,8.10
2017-12-29T13:22:42.999Z,8.00
2017-12-29T13:25:10.236Z,8.00
2017-12-29T13:27:37.018Z,7.90
2017-12-29T13:30:04.933Z,6.90
2017-12-29T13:32:32.921Z,6.70
2017-12-29T13:35:00.196Z,7.20
2017-12-29T13:37:27.077Z,7.60
2017-12-29T13:39:54.613Z,7.20
2017-12-29T13:42:21.690Z,6.10
2017-12-29T13:44:50.016Z,5.20
2017-12-29T13:47:17.680Z,4.40
2017-12-29T13:49:45.762Z,3.90
2017-12-29T13:52:13.994Z,2.90
2017-12-29T13:54:40.463Z,2.90
2017-12-29T13:57:06.947Z,2.60
2017-12-29T13:59:33.393Z,2.40
2017-12-29T14:01:59.811Z,2.20
2017-12-29T14:04:26.302Z,1.90
2017-12-29T14:06:52.698Z,1.80
2017-12-29T14:09:19.135Z,1.60
2017-12-29T14:11:45.585Z,1.40
2017-12-29T14:14:12.020Z,1.30
2017-12-29T14:16:38.461Z,1.30
2017-12-29T14:19:04.905Z,1.30
2017-12-29T14:21:31.381Z,1.30
2017-12-29T14:23:57.764Z,1.20
2017-12-29T14:26:24.493Z,1.20
2017-12-29T14:28:51.041Z,1.20
2017-12-29T14:31:17.524Z,1.20
2017-12-29T14:33:44.150Z,1.10
2017-12-29T14:36:10.578Z,1.10
2017-12-29T14:38:36.999Z,1.10
2017-12-29T14:41:04.174Z,0.90
2017-12-29T14:43:30.542Z,0.90
2017-12-29T14:45:57.049Z,0.90
2017-12-29T14:48:23.439Z,0.90
2017-12-29T14:50:50.621Z,0.70
2017-12-29T14:53:17.057Z,0.70
2017-12-29T14:55:43.510Z,0.80
2017-12-29T14:58:09.920Z,0.70
2017-12-29T15:00:36.368Z,0.60
2017-12-29T15:03:02.795Z,0.70
2017-12-29T15:05:29.201Z,0.70
2017-12-29T15:07:55.634Z,0.60
2017-12-29T15:10:22.088Z,0.60
2017-12-29T15:12:48.466Z,0.60
2017-12-29T15:15:14.925Z,0.60
2017-12-29T15:17:41.371Z,0.60
2017-12-29T15:20:07.760Z,0.60
2017-12-29T15:22:34.170Z,0.50
2017-12-29T15:25:00.665Z,0.50
2017-12-29T15:27:27.096Z,0.50
2017-12-29T15:29:53.536Z,0.50
2017-12-29T15:32:19.937Z,0.50
2017-12-29T15:34:47.102Z,0.40
2017-12-29T15:37:13.516Z,0.40
2017-12-29T15:39:40.645Z,0.30
2017-12-29T15:42:07.085Z,0.30
2017-12-29T15:44:40.524Z,0.30
2017-12-29T15:47:07.139Z,0.30
2017-12-29T15:49:34.324Z,0.20
2017-12-29T15:52:00.770Z,0.20
2017-12-29T15:54:27.207Z,0.20
2017-12-29T15:56:53.633Z,0.20
2017-12-29T15:59:20.036Z,0.20
2017-12-29T16:01:47.249Z,0.10
2017-12-29T16:04:13.641Z,0.10
2017-12-29T16:06:40.065Z,0.10
2017-12-29T16:09:06.548Z,0.10
2017-12-29T16:11:33.731Z,0.10
2017-12-29T16:14:00.209Z,0.10
2017-12-29T16:16:28.102Z,0.10
2017-12-29T16:18:55.280Z,0.10
2017-12-29T16:21:21.693Z,0.10
2017-12-29T16:23:48.860Z,0.10
2017-12-29T16:26:15.299Z,0.10
2017-12-29T16:28:41.903Z,0.10
2017-12-29T16:31:09.070Z,0.10
2017-12-29T16:33:35.765Z,0.10
2017-12-29T16:36:02.213Z,0.10
2017-12-29T16:38:28.600Z,0.10
2017-12-29T16:40:55.021Z,0.10
2017-12-29T16:43:21.457Z,0.10
2017-12-29T16:45:47.848Z,0.10
2017-12-29T16:48:15.061Z,0.10
2017-12-29T16:50:41.457Z,0.10
2017-12-29T16:53:07.861Z,0.10
2017-12-29T16:55:35.052Z,0.10
2017-12-29T16:58:01.554Z,0.10
2017-12-29T17:00:28.753Z,0.10
2017-12-29T17:02:55.301Z,0.10
2017-12-29T17:05:22.519Z,0.00
2017-12-29T17:07:49.051Z,0.00
2017-12-29T17:10:15.424Z,-0.10
2017-12-29T17:12:41.825Z,-0.10
2017-12-29T17:15:08.241Z,-0.20
2017-12-29T17:17:34.679Z,-0.20
2017-12-29T17:20:01.081Z,-0.30
2017-12-29T17:22:28.317Z,-0.30
2017-12-29T17:24:54.843Z,-0.40
2017-12-29T17:27:21.251Z,-0.30
2017-12-29T17:29:47.694Z,-0.30
2017-12-29T17:32:14.086Z,-0.30
2017-12-29T17:34:40.524Z,-0.30
2017-12-29T17:37:07.022Z,-0.20
2017-12-29T17:39:34.256Z,-0.50
2017-12-29T17:42:00.756Z,-0.50
2017-12-29T17:44:27.241Z,-0.50
2017-12-29T17:46:54.394Z,-0.50
2017-12-29T17:49:21.593Z,-0.50
2017-12-29T17:51:48.089Z,-0.50
2017-12-29T17:54:15.345Z,-0.70
2017-12-29T17:56:41.779Z,-0.70
2017-12-29T17:59:08.245Z,-0.80
2017-12-29T18:01:34.664Z,-0.90
2017-12-29T18:04:01.053Z,-1.00
2017-12-29T18:06:28.279Z,-1.00
2017-12-29T18:08:56.122Z,-1.00
2017-12-29T18:11:22.494Z,-1.00
2017-12-29T18:16:45.693Z,-1.00
2017-12-29T18:19:12.145Z,-1.00
2017-12-29T18:21:38.597Z,-1.00
2017-12-29T18:24:05.067Z,-0.90
2017-12-29T18:26:31.517Z,-0.90
2017-12-29T18:28:58.703Z,-0.80
2017-12-29T18:31:25.476Z,-0.80
2017-12-29T18:33:52.718Z,-0.80
2017-12-29T18:36:19.136Z,-0.80
2017-12-29T18:38:45.545Z,-0.70
2017-12-29T18:41:12.013Z,-0.70
2017-12-29T18:43:38.448Z,-0.60
2017-12-29T18:46:05.019Z,-0.60
2017-12-29T18:48:32.217Z,-0.50
2017-12-29T18:50:58.649Z,-0.50
2017-12-29T18:53:25.080Z,-0.50
2017-12-29T18:55:51.499Z,-0.50
2017-12-29T18:58:18.006Z,-0.50
2017-12-29T19:00:45.213Z,-0.50
2017-12-29T19:03:11.694Z,-0.60
2017-12-29T19:05:38.142Z,-0.60
2017-12-29T19:08:04.548Z,-0.60
2017-12-29T19:10:31.721Z,-0.50
2017-12-29T19:12:58.192Z,-0.50
2017-12-29T19:15:24.609Z,-0.40
2017-12-29T19:17:51.189Z,-0.40
2017-12-29T19:20:18.393Z,-0.40
2017-12-29T19:22:44.976Z,-0.40
2017-12-29T19:25:12.214Z,-0.40
2017-12-29T19:27:38.711Z,-0.40
2017-12-29T19:30:05.285Z,-0.30
2017-12-29T19:32:31.749Z,-0.30
2017-12-29T19:34:58.278Z,-0.30
2017-12-29T19:37:24.790Z,-0.40
2017-12-29T19:39:51.337Z,-0.40
2017-12-29T19:42:19.481Z,-0.40
2017-12-29T19:44:45.967Z,-0.50
2017-12-29T19:47:12.488Z,-0.40
2017-12-29T19:49:39.684Z,-0.50
2017-12-29T19:52:07.121Z,-0.50
2017-12-29T19:54:33.673Z,-0.50
2017-12-29T19:57:00.874Z,-0.50
2017-12-29T19:59:27.788Z,-0.50
2017-12-29T20:01:54.343Z,-0.50
2017-12-29T20:04:21.613Z,-0.40
2017-12-29T20:06:48.999Z,-0.40
2017-12-29T20:09:15.753Z,-0.40
2017-12-29T20:11:43.217Z,-0.30
2017-12-29T20:14:09.752Z,-0.30
2017-12-29T20:16:36.404Z,-0.20
2017-12-29T20:19:03.121Z,-0.20
2017-12-29T20:21:29.828Z,-0.20
2017-12-29T20:23:57.290Z,-0.20
2017-12-29T20:26:24.063Z,-0.20
2017-12-29T20:28:50.780Z,-0.10
2017-12-29T20:31:17.620Z,-0.10
2017-12-29T20:33:44.286Z,-0.10
2017-12-29T20:36:10.899Z,-0.20
2017-12-29T20:38:37.382Z,-0.10
2017-12-29T20:41:04.818Z,0.00
2017-12-29T20:43:33.450Z,0.00
2017-12-29T20:46:00.190Z,0.00
2017-12-29T20:48:27.719Z,0.00
2017-12-29T20:50:55.336Z,0.30
2017-12-29T20:53:22.077Z,0.30
2017-12-29T20:55:48.932Z,0.30
2017-12-29T20:58:15.482Z,0.40
2017-12-29T21:00:42.090Z,0.50
2017-12-29T21:03:08.862Z,0.60
2017-12-29T21:05:35.569Z,0.70
2017-12-29T21:08:02.342Z,0.90
2017-12-29T21:10:31.081Z,1.00
2017-12-29T21:12:57.709Z,1.00
2017-12-29T21:15:24.522Z,1.00
2017-12-29T21:17:51.989Z,1.10
2017-12-29T21:20:19.545Z,1.10
2017-12-29T21:22:46.941Z,1.10
2017-12-29T21:25:13.524Z,1.10
2017-12-29T21:27:40.845Z,1.10
2017-12-29T21:30:07.692Z,1.10
2017-12-29T21:32:34.255Z,1.20
2017-12-29T21:35:01.733Z,1.40
2017-12-29T21:37:28.901Z,1.40
2017-12-29T21:39:55.642Z,1.50
2017-12-29T21:42:26.060Z,1.60
2017-12-29T21:44:52.511Z,1.60
2017-12-29T21:47:18.981Z,1.60
2017-12-29T21:49:45.468Z,1.60
2017-12-29T21:52:11.902Z,1.70
2017-12-29T21:54:38.365Z,1.80
2017-12-29T21:57:04.881Z,1.80
2017-12-29T21:59:31.341Z,1.90
2017-12-29T22:01:57.825Z,1.90
2017-12-29T22:04:24.308Z,2.00
2017-12-29T22:06:50.810Z,2.00
2017-12-29T22:09:17.307Z,1.90
2017-12-29T22:11:43.749Z,1.90
2017-12-29T22:14:10.266Z,1.90
2017-12-29T22:16:37.570Z,1.90
2017-12-29T22:19:04.021Z,1.90
2017-12-29T22:21:30.517Z,1.90
2017-12-29T22:23:56.951Z,1.80
2017-12-29T22:26:23.378Z,1.90
2017-12-29T22:28:49.901Z,1.90
2017-12-29T22:31:16.480Z,1.90
2017-12-29T22:33:42.882Z,1.90
2017-12-29T22:36:09.298Z,1.90
2017-12-29T22:38:35.768Z,2.00
2017-12-29T22:41:02.266Z,2.00
2017-12-29T22:43:28.706Z,2.00
2017-12-29T22:45:55.162Z,2.00
2017-12-29T22:48:21.571Z,2.00
2017-12-29T22:50:48.032Z,2.00
2017-12-29T22:53:14.505Z,2.00
2017-12-29T22:55:41.660Z,2.00
2017-12-29T22:58:08.854Z,2.00
2017-12-29T23:00:35.369Z,2.00
2017-12-29T23:03:01.803Z,2.00
2017-12-29T23:05:28.257Z,2.00
2017-12-29T23:07:54.698Z,2.00
2017-12-29T23:10:21.121Z,2.00
2017-12-29T23:12:47.512Z,2.00
2017-12-29T23:15:14.668Z,1.90
2017-12-29T23:17:41.109Z,1.90
2017-12-29T23:20:07.533Z,1.80
2017-12-29T23:25:29.514Z,1.60
2017-12-29T23:27:56.014Z,1.50
2017-12-29T23:30:22.417Z,1.50
2017-12-29T23:32:48.812Z,1.50
2017-12-29T23:35:15.245Z,1.40
2017-12-29T23:37:41.643Z,1.30
2017-12-29T23:40:08.109Z,1.20
2017-12-29T23:42:34.508Z,1.10
2017-12-29T23:45:00.904Z,1.00
2017-12-29T23:47:27.392Z,1.00
2017-12-29T23:49:53.792Z,1.10
2017-12-29T23:52:20.259Z,1.10
2017-12-29T23:54:46.688Z,1.10
2017-12-29T23:57:13.146Z,1.10
2017-12-29T23:59:42.727Z,1.10
